createdAt,value
2018-08-31T00:00:39.475Z,7.40
2018-08-31T00:03:08.321Z,7.70
2018-08-31T00:05:49.193Z,8.43
2018-08-31T00:09:29.584Z,7.67
2018-08-31T00:13:07.528Z,7.90
2018-08-31T00:15:36.041Z,7.97
2018-08-31T00:18:04.479Z,7.67
2018-08-31T00:20:32.974Z,8.57
2018-08-31T00:23:01.525Z,7.70
2018-08-31T00:26:08.674Z,7.90
2018-08-31T00:28:48.978Z,7.70
2018-08-31T00:31:27.518Z,7.57
2018-08-31T00:34:13.545Z,7.47
2018-08-31T00:36:51.418Z,7.03
2018-08-31T00:39:32.700Z,6.93
2018-08-31T00:43:13.583Z,7.27
2018-08-31T00:45:42.631Z,6.60
2018-08-31T00:48:11.029Z,6.40
2018-08-31T00:50:39.416Z,6.20
2018-08-31T00:53:08.181Z,6.33
2018-08-31T00:55:36.582Z,6.60
2018-08-31T00:58:05.008Z,5.73
2018-08-31T01:00:33.464Z,6.17
2018-08-31T01:03:01.802Z,5.70
2018-08-31T01:05:30.178Z,5.97
2018-08-31T01:07:58.758Z,7.63
2018-08-31T01:10:27.134Z,8.20
2018-08-31T01:12:55.939Z,8.77
2018-08-31T01:15:24.472Z,9.50
2018-08-31T01:17:52.854Z,8.63
2018-08-31T01:20:21.206Z,9.60
2018-08-31T01:22:49.740Z,10.47
2018-08-31T01:25:18.187Z,9.93
2018-08-31T01:27:46.545Z,9.13
2018-08-31T01:30:15.098Z,9.17
2018-08-31T01:32:43.462Z,8.77
2018-08-31T01:35:11.852Z,8.27
2018-08-31T01:37:40.194Z,8.53
2018-08-31T01:40:08.708Z,10.50
2018-08-31T01:42:37.066Z,10.33
2018-08-31T01:45:05.524Z,10.03
2018-08-31T01:47:34.318Z,10.50
2018-08-31T01:50:02.714Z,12.13
2018-08-31T01:52:31.084Z,10.67
2018-08-31T01:54:59.773Z,10.80
2018-08-31T01:57:28.114Z,11.70
2018-08-31T01:59:56.512Z,10.30
2018-08-31T02:02:25.104Z,11.30
2018-08-31T02:04:54.288Z,10.93
2018-08-31T02:07:22.672Z,11.20
2018-08-31T02:09:51.248Z,10.80
2018-08-31T02:12:19.672Z,10.33
2018-08-31T02:14:48.164Z,10.37
2018-08-31T02:17:16.598Z,9.33
2018-08-31T02:19:45.013Z,9.20
2018-08-31T02:22:13.592Z,9.03
2018-08-31T02:24:41.974Z,8.80
2018-08-31T02:27:10.315Z,9.43
2018-08-31T02:29:38.789Z,8.50
2018-08-31T02:32:07.123Z,8.70
2018-08-31T02:34:35.487Z,9.50
2018-08-31T02:37:03.959Z,9.37
2018-08-31T02:39:32.279Z,7.93
2018-08-31T02:42:00.721Z,8.37
2018-08-31T02:44:29.273Z,7.83
2018-08-31T02:46:57.637Z,8.33
2018-08-31T02:49:26.077Z,8.53
2018-08-31T02:51:54.487Z,8.60
2018-08-31T02:54:22.927Z,8.70
2018-08-31T02:56:51.307Z,8.10
2018-08-31T02:59:19.713Z,8.80
2018-08-31T03:01:48.071Z,8.57
2018-08-31T03:04:16.755Z,8.23
2018-08-31T03:06:45.103Z,8.47
2018-08-31T03:09:13.503Z,8.40
2018-08-31T03:11:42.313Z,7.97
2018-08-31T03:14:10.837Z,7.63
2018-08-31T03:16:39.250Z,7.40
2018-08-31T03:19:07.623Z,7.30
2018-08-31T03:21:36.099Z,8.53
2018-08-31T03:24:04.452Z,8.80
2018-08-31T03:26:32.797Z,7.93
2018-08-31T03:29:01.342Z,8.13
2018-08-31T03:31:29.824Z,8.43
2018-08-31T03:33:58.166Z,8.53
2018-08-31T03:36:26.801Z,8.50
2018-08-31T03:38:55.172Z,8.53
2018-08-31T03:41:23.516Z,8.27
2018-08-31T03:43:51.946Z,9.63
2018-08-31T03:46:20.312Z,9.47
2018-08-31T03:48:48.688Z,8.47
2018-08-31T03:51:17.282Z,8.27
2018-08-31T03:53:45.692Z,9.27
2018-08-31T03:56:14.128Z,8.60
2018-08-31T03:58:42.530Z,9.23
2018-08-31T04:01:10.974Z,9.00
2018-08-31T04:03:39.330Z,9.43
2018-08-31T04:06:07.400Z,10.07
2018-08-31T04:08:35.843Z,9.70
2018-08-31T04:11:04.291Z,10.73
2018-08-31T04:13:32.652Z,9.87
2018-08-31T04:16:01.073Z,11.80
2018-08-31T04:18:29.495Z,11.37
2018-08-31T04:20:57.971Z,11.73
2018-08-31T04:23:26.315Z,12.93
2018-08-31T04:25:54.675Z,10.77
2018-08-31T04:28:23.244Z,10.97
2018-08-31T04:30:51.696Z,10.37
2018-08-31T04:33:20.120Z,11.90
2018-08-31T04:35:48.539Z,11.13
2018-08-31T04:38:16.891Z,10.60
2018-08-31T04:40:45.289Z,11.33
2018-08-31T04:43:13.756Z,12.40
2018-08-31T04:45:42.280Z,12.43
2018-08-31T04:48:10.695Z,11.80
2018-08-31T04:50:39.209Z,12.53
2018-08-31T04:53:07.698Z,12.23
2018-08-31T04:55:37.051Z,11.03
2018-08-31T04:58:05.496Z,12.63
2018-08-31T05:00:33.864Z,14.63
2018-08-31T05:03:02.312Z,12.53
2018-08-31T05:05:30.835Z,12.97
2018-08-31T05:07:59.261Z,12.17
2018-08-31T05:10:27.636Z,12.93
2018-08-31T05:12:56.200Z,12.07
2018-08-31T05:15:24.767Z,12.17
2018-08-31T05:17:53.269Z,11.80
2018-08-31T05:20:21.691Z,12.53
2018-08-31T05:22:50.091Z,11.37
2018-08-31T05:25:18.508Z,11.50
2018-08-31T05:27:46.980Z,12.50
2018-08-31T05:30:15.329Z,11.67
2018-08-31T05:32:43.761Z,11.90
2018-08-31T05:35:12.335Z,12.80
2018-08-31T05:37:40.980Z,12.27
2018-08-31T05:40:09.412Z,10.83
2018-08-31T05:42:37.896Z,11.07
2018-08-31T05:45:06.375Z,9.20
2018-08-31T05:47:34.733Z,10.60
2018-08-31T05:50:03.283Z,9.80
2018-08-31T05:52:31.616Z,10.40
2018-08-31T05:54:59.969Z,10.37
2018-08-31T05:57:28.561Z,10.17
2018-08-31T05:59:57.003Z,10.50
2018-08-31T06:02:25.444Z,10.63
2018-08-31T06:04:53.819Z,11.33
2018-08-31T06:07:22.292Z,10.43
2018-08-31T06:09:50.623Z,13.67
2018-08-31T06:12:19.136Z,10.30
2018-08-31T06:14:47.473Z,10.97
2018-08-31T06:17:15.941Z,10.50
2018-08-31T06:19:44.404Z,10.53
2018-08-31T06:22:12.874Z,11.43
2018-08-31T06:24:41.239Z,10.13
2018-08-31T06:27:09.703Z,11.67
2018-08-31T06:29:38.100Z,11.10
2018-08-31T06:32:06.592Z,9.87
2018-08-31T06:34:35.252Z,9.83
2018-08-31T06:37:03.648Z,11.00
2018-08-31T06:39:32.024Z,10.07
2018-08-31T06:42:00.492Z,10.53
2018-08-31T06:44:28.886Z,10.80
2018-08-31T06:46:57.252Z,10.63
2018-08-31T06:49:25.832Z,10.17
2018-08-31T06:51:54.163Z,10.50
2018-08-31T06:54:22.608Z,11.07
2018-08-31T06:56:51.376Z,10.13
2018-08-31T06:59:19.792Z,11.03
2018-08-31T07:01:48.123Z,11.33
2018-08-31T07:04:16.720Z,10.37
2018-08-31T07:06:45.107Z,11.20
2018-08-31T07:09:13.476Z,11.20
2018-08-31T07:11:42.067Z,10.10
2018-08-31T07:14:10.417Z,10.57
2018-08-31T07:16:38.899Z,10.93
2018-08-31T07:19:08.595Z,9.90
2018-08-31T07:21:37.040Z,10.97
2018-08-31T07:24:05.390Z,12.27
2018-08-31T07:26:33.981Z,11.40
2018-08-31T07:29:02.384Z,11.87
2018-08-31T07:31:30.744Z,10.67
2018-08-31T07:33:59.311Z,11.70
2018-08-31T07:36:27.834Z,12.60
2018-08-31T07:38:56.172Z,11.90
2018-08-31T07:41:24.589Z,15.50
2018-08-31T07:43:53.189Z,14.87
2018-08-31T07:46:21.602Z,16.03
2018-08-31T07:48:50.913Z,13.20
2018-08-31T07:51:19.319Z,13.63
2018-08-31T07:53:47.789Z,15.20
2018-08-31T07:56:16.178Z,13.83
2018-08-31T07:58:44.575Z,12.50
2018-08-31T08:01:13.079Z,14.53
2018-08-31T08:03:41.709Z,12.90
2018-08-31T08:06:10.080Z,14.50
2018-08-31T08:08:38.413Z,16.80
2018-08-31T08:11:06.875Z,13.90
2018-08-31T08:13:35.325Z,13.93
2018-08-31T08:16:04.259Z,15.33
2018-08-31T08:18:32.886Z,14.10
2018-08-31T08:21:01.251Z,15.57
2018-08-31T08:23:29.823Z,18.27
2018-08-31T08:25:58.296Z,16.87
2018-08-31T08:28:26.720Z,16.90
2018-08-31T08:30:55.087Z,17.07
2018-08-31T08:33:23.507Z,19.57
2018-08-31T08:35:51.996Z,16.50
2018-08-31T08:38:20.327Z,16.03
2018-08-31T08:40:48.929Z,17.17
2018-08-31T08:43:17.269Z,15.93
2018-08-31T08:45:45.615Z,15.93
2018-08-31T08:48:14.219Z,16.93
2018-08-31T08:50:42.677Z,16.00
2018-08-31T08:53:11.070Z,15.03
2018-08-31T08:55:40.405Z,16.00
2018-08-31T08:58:08.838Z,17.20
2018-08-31T09:00:37.349Z,18.60
2018-08-31T09:03:05.964Z,16.73
2018-08-31T09:05:34.375Z,18.13
2018-08-31T09:08:02.733Z,17.47
2018-08-31T09:10:31.244Z,20.87
2018-08-31T09:12:59.675Z,19.57
2018-08-31T09:15:28.053Z,17.27
2018-08-31T09:17:56.608Z,19.00
2018-08-31T09:20:25.056Z,19.17
2018-08-31T09:22:53.463Z,27.20
2018-08-31T09:25:21.964Z,25.27
2018-08-31T09:27:50.304Z,23.93
2018-08-31T09:30:23.912Z,39.17
2018-08-31T09:32:52.360Z,26.90
2018-08-31T09:35:20.826Z,31.57
2018-08-31T09:37:49.212Z,25.67
2018-08-31T09:40:17.675Z,23.53
2018-08-31T09:42:46.052Z,32.30
2018-08-31T09:45:14.456Z,22.80
2018-08-31T09:47:42.916Z,20.90
2018-08-31T09:50:11.290Z,23.47
2018-08-31T09:52:39.965Z,21.47
2018-08-31T09:55:08.369Z,21.30
2018-08-31T09:57:36.745Z,23.87
2018-08-31T10:00:05.584Z,21.17
2018-08-31T10:02:37.896Z,19.20
2018-08-31T10:05:07.744Z,20.60
2018-08-31T10:07:36.198Z,16.90
2018-08-31T10:10:04.594Z,16.93
2018-08-31T10:12:32.976Z,17.13
2018-08-31T10:15:01.364Z,19.27
2018-08-31T10:17:29.934Z,19.93
2018-08-31T10:19:58.596Z,17.77
2018-08-31T10:22:27.019Z,17.50
2018-08-31T10:24:55.448Z,18.50
2018-08-31T10:27:23.876Z,20.40
2018-08-31T10:29:52.232Z,18.00
2018-08-31T10:32:20.699Z,20.07
2018-08-31T10:34:49.333Z,22.23
2018-08-31T10:37:17.675Z,21.93
2018-08-31T10:39:46.056Z,22.47
2018-08-31T10:42:14.500Z,23.93
2018-08-31T10:44:42.892Z,23.73
2018-08-31T10:47:11.282Z,20.80
2018-08-31T10:49:39.695Z,24.57
2018-08-31T10:52:08.092Z,32.63
2018-08-31T10:54:36.542Z,32.90
2018-08-31T10:57:05.026Z,27.80
2018-08-31T10:59:33.582Z,23.40
2018-08-31T11:02:16.288Z,31.67
2018-08-31T11:04:44.676Z,31.47
2018-08-31T11:07:13.040Z,29.20
2018-08-31T11:09:41.668Z,29.57
2018-08-31T11:12:10.136Z,24.90
2018-08-31T11:14:38.698Z,21.97
2018-08-31T11:17:07.346Z,23.20
2018-08-31T11:19:36.107Z,24.10
2018-08-31T11:22:04.484Z,22.83
2018-08-31T11:24:32.971Z,22.83
2018-08-31T11:27:01.304Z,22.43
2018-08-31T11:29:29.678Z,25.80
2018-08-31T11:31:58.249Z,21.53
2018-08-31T11:34:26.601Z,20.97
2018-08-31T11:36:55.116Z,22.50
2018-08-31T11:39:23.627Z,23.80
2018-08-31T11:41:52.072Z,21.80
2018-08-31T11:44:20.568Z,18.70
2018-08-31T11:46:49.136Z,18.37
2018-08-31T11:49:17.508Z,20.93
2018-08-31T11:51:45.918Z,17.83
2018-08-31T11:54:14.571Z,20.17
2018-08-31T11:56:43.085Z,15.73
2018-08-31T11:59:11.453Z,18.40
2018-08-31T12:01:39.967Z,15.43
2018-08-31T12:04:08.377Z,16.63
2018-08-31T12:06:36.869Z,17.43
2018-08-31T12:09:07.520Z,15.27
2018-08-31T12:11:35.951Z,14.57
2018-08-31T12:14:04.419Z,15.37
2018-08-31T12:16:33.067Z,14.57
2018-08-31T12:19:02.378Z,15.77
2018-08-31T12:21:30.771Z,13.77
2018-08-31T12:23:59.313Z,13.27
2018-08-31T12:26:27.657Z,11.33
2018-08-31T12:28:56.073Z,13.00
2018-08-31T12:31:24.449Z,13.03
2018-08-31T12:33:52.843Z,13.93
2018-08-31T12:36:21.215Z,11.63
2018-08-31T12:38:49.910Z,13.10
2018-08-31T12:41:18.283Z,11.23
2018-08-31T12:43:46.676Z,11.50
2018-08-31T12:46:15.233Z,12.63
2018-08-31T12:48:43.638Z,11.90
2018-08-31T12:51:11.976Z,11.40
2018-08-31T12:53:40.604Z,10.63
2018-08-31T12:56:08.964Z,11.10
2018-08-31T12:58:37.344Z,10.83
2018-08-31T13:01:05.912Z,12.53
2018-08-31T13:03:34.252Z,13.00
2018-08-31T13:06:02.755Z,14.30
2018-08-31T13:08:31.280Z,12.70
2018-08-31T13:10:59.747Z,16.33
2018-08-31T13:13:28.149Z,12.20
2018-08-31T13:15:56.651Z,13.03
2018-08-31T13:18:25.237Z,14.37
2018-08-31T13:20:53.768Z,18.40
2018-08-31T13:23:22.522Z,13.97
2018-08-31T13:25:50.957Z,16.77
2018-08-31T13:28:19.355Z,15.57
2018-08-31T13:30:47.832Z,15.70
2018-08-31T13:33:16.296Z,13.57
2018-08-31T13:35:44.673Z,15.40
2018-08-31T13:38:13.176Z,14.43
2018-08-31T13:40:41.576Z,14.73
2018-08-31T13:43:09.901Z,12.80
2018-08-31T13:45:38.325Z,15.20
2018-08-31T13:48:13.424Z,15.23
2018-08-31T13:50:41.818Z,15.60
2018-08-31T13:53:10.156Z,15.33
2018-08-31T13:55:38.499Z,15.90
2018-08-31T13:58:07.004Z,12.43
2018-08-31T14:00:35.391Z,13.40
2018-08-31T14:03:03.752Z,17.07
2018-08-31T14:05:32.220Z,14.40
2018-08-31T14:08:00.639Z,14.83
2018-08-31T14:10:28.973Z,16.67
2018-08-31T14:12:57.470Z,15.80
2018-08-31T14:15:25.839Z,19.50
2018-08-31T14:17:54.178Z,18.73
2018-08-31T14:20:22.660Z,17.43
2018-08-31T14:22:51.022Z,17.43
2018-08-31T14:25:19.447Z,15.00
2018-08-31T14:27:47.991Z,18.07
2018-08-31T14:30:16.332Z,17.27
2018-08-31T14:32:44.685Z,16.03
2018-08-31T14:35:13.230Z,15.80
2018-08-31T14:37:41.595Z,17.53
2018-08-31T14:40:10.547Z,17.03
2018-08-31T14:42:39.245Z,18.70
2018-08-31T14:45:08.111Z,16.00
2018-08-31T14:47:36.613Z,15.27
2018-08-31T14:50:05.890Z,16.23
2018-08-31T14:52:34.271Z,18.20
2018-08-31T14:55:02.619Z,18.67
2018-08-31T14:57:31.046Z,16.97
2018-08-31T14:59:59.452Z,17.27
2018-08-31T15:02:27.809Z,18.10
2018-08-31T15:04:56.384Z,18.07
2018-08-31T15:07:24.956Z,19.00
2018-08-31T15:09:53.387Z,20.07
2018-08-31T15:12:21.820Z,17.23
2018-08-31T15:14:50.289Z,16.87
2018-08-31T15:17:18.634Z,19.83
2018-08-31T15:19:47.085Z,17.93
2018-08-31T15:22:15.453Z,18.57
2018-08-31T15:24:43.905Z,18.50
2018-08-31T15:27:12.698Z,18.50
2018-08-31T15:29:41.176Z,17.20
2018-08-31T15:32:09.609Z,18.27
2018-08-31T15:34:38.044Z,17.63
2018-08-31T15:37:06.441Z,21.20
2018-08-31T15:39:34.845Z,21.33
2018-08-31T15:42:03.678Z,18.43
2018-08-31T15:44:32.221Z,17.80
2018-08-31T15:47:01.694Z,18.97
2018-08-31T15:49:30.309Z,16.40
2018-08-31T15:51:58.696Z,18.37
2018-08-31T15:54:27.008Z,18.20
2018-08-31T15:56:55.484Z,17.77
2018-08-31T15:59:23.816Z,19.73
2018-08-31T16:01:52.191Z,17.97
2018-08-31T16:04:20.672Z,17.00
2018-08-31T16:06:49.020Z,17.37
2018-08-31T16:09:17.479Z,18.10
2018-08-31T16:11:45.879Z,17.47
2018-08-31T16:14:14.294Z,17.43
2018-08-31T16:16:42.763Z,17.83
2018-08-31T16:19:11.444Z,17.40
2018-08-31T16:21:39.791Z,18.33
2018-08-31T16:24:08.400Z,17.67
2018-08-31T16:26:36.898Z,16.40
2018-08-31T16:29:05.326Z,16.77
2018-08-31T16:31:33.767Z,17.27
2018-08-31T16:34:03.421Z,18.97
2018-08-31T16:36:31.784Z,18.53
2018-08-31T16:39:00.258Z,16.23
2018-08-31T16:41:28.556Z,16.10
2018-08-31T16:43:56.981Z,18.37
2018-08-31T16:46:25.316Z,16.17
2018-08-31T16:48:53.819Z,17.50
2018-08-31T16:51:22.160Z,17.67
2018-08-31T16:53:50.508Z,16.67
2018-08-31T16:56:18.957Z,14.13
2018-08-31T16:58:47.362Z,15.53
2018-08-31T17:01:15.790Z,17.30
2018-08-31T17:03:44.209Z,18.43
2018-08-31T17:06:12.836Z,14.80
2018-08-31T17:08:41.272Z,15.73
2018-08-31T17:11:09.891Z,13.67
2018-08-31T17:13:38.507Z,16.13
2018-08-31T17:16:06.951Z,16.57
2018-08-31T17:18:35.410Z,13.90
2018-08-31T17:21:03.943Z,13.63
2018-08-31T17:23:33.314Z,15.90
2018-08-31T17:26:01.897Z,16.97
2018-08-31T17:28:35.607Z,15.20
2018-08-31T17:31:09.592Z,14.97
2018-08-31T17:33:43.316Z,12.93
2018-08-31T17:36:17.244Z,14.67
2018-08-31T17:38:45.655Z,17.17
2018-08-31T17:41:14.051Z,14.60
2018-08-31T17:43:42.524Z,14.43
2018-08-31T17:46:10.971Z,12.80
2018-08-31T17:48:39.333Z,13.33
2018-08-31T17:51:07.811Z,16.00
2018-08-31T17:53:36.191Z,13.17
2018-08-31T17:56:04.585Z,14.73
2018-08-31T17:58:33.311Z,15.77
2018-08-31T18:01:01.671Z,18.30
2018-08-31T18:03:29.996Z,16.07
2018-08-31T18:05:58.544Z,12.07
2018-08-31T18:08:26.956Z,14.80
2018-08-31T18:10:55.325Z,14.50
2018-08-31T18:13:23.888Z,15.30
2018-08-31T18:15:52.345Z,13.67
2018-08-31T18:18:20.603Z,15.37
2018-08-31T18:20:49.251Z,14.50
2018-08-31T18:23:17.617Z,22.27
2018-08-31T18:25:46.012Z,26.97
2018-08-31T18:28:14.359Z,15.00
2018-08-31T18:30:42.731Z,16.53
2018-08-31T18:33:11.412Z,14.77
2018-08-31T18:35:39.917Z,16.00
2018-08-31T18:38:08.195Z,15.23
2018-08-31T18:40:36.555Z,17.27
2018-08-31T18:43:05.147Z,17.47
2018-08-31T18:45:33.619Z,16.60
2018-08-31T18:48:01.974Z,16.47
2018-08-31T18:50:30.433Z,14.87
2018-08-31T18:52:58.776Z,14.17
2018-08-31T18:55:27.288Z,17.43
2018-08-31T18:57:55.753Z,16.93
2018-08-31T19:00:24.101Z,17.80
2018-08-31T19:02:52.476Z,12.30
2018-08-31T19:05:21.055Z,14.13
2018-08-31T19:07:49.450Z,13.43
2018-08-31T19:10:17.839Z,15.70
2018-08-31T19:12:47.388Z,15.53
2018-08-31T19:15:15.732Z,14.00
2018-08-31T19:17:44.075Z,16.10
2018-08-31T19:20:12.764Z,14.40
2018-08-31T19:22:41.119Z,13.07
2018-08-31T19:25:09.714Z,13.40
2018-08-31T19:27:38.155Z,14.00
2018-08-31T19:30:07.983Z,13.70
2018-08-31T19:32:37.273Z,16.30
2018-08-31T19:35:06.621Z,15.20
2018-08-31T19:37:34.963Z,15.57
2018-08-31T19:40:03.433Z,14.27
2018-08-31T19:42:31.968Z,13.70
2018-08-31T19:45:00.507Z,16.30
2018-08-31T19:47:28.859Z,15.47
2018-08-31T19:49:57.244Z,16.23
2018-08-31T19:52:25.637Z,13.93
2018-08-31T19:54:53.980Z,15.07
2018-08-31T19:57:22.560Z,14.00
2018-08-31T19:59:50.937Z,15.17
2018-08-31T20:02:19.474Z,16.37
2018-08-31T20:04:48.053Z,16.60
2018-08-31T20:07:16.475Z,16.23
2018-08-31T20:09:45.110Z,15.13
2018-08-31T20:12:13.602Z,16.77
2018-08-31T20:14:41.980Z,16.40
2018-08-31T20:17:10.396Z,15.03
2018-08-31T20:19:38.789Z,17.37
2018-08-31T20:22:10.008Z,14.73
2018-08-31T20:24:38.715Z,18.80
2018-08-31T20:27:07.117Z,16.83
2018-08-31T20:29:35.467Z,16.93
2018-08-31T20:32:03.887Z,17.77
2018-08-31T20:34:32.819Z,19.90
2018-08-31T20:37:01.413Z,17.60
2018-08-31T20:39:29.802Z,17.63
2018-08-31T20:41:58.235Z,18.37
2018-08-31T20:44:26.669Z,18.30
2018-08-31T20:46:55.020Z,18.03
2018-08-31T20:49:23.583Z,17.97
2018-08-31T20:51:52.066Z,18.73
2018-08-31T20:54:20.529Z,19.10
2018-08-31T20:56:48.895Z,18.70
2018-08-31T20:59:17.260Z,17.83
2018-08-31T21:01:45.816Z,18.27
2018-08-31T21:04:14.232Z,17.57
2018-08-31T21:06:42.636Z,17.23
2018-08-31T21:09:11.927Z,18.70
2018-08-31T21:11:40.613Z,18.23
2018-08-31T21:14:09.135Z,19.73
2018-08-31T21:16:37.485Z,17.30
2018-08-31T21:19:05.991Z,18.73
2018-08-31T21:21:34.380Z,20.10
2018-08-31T21:24:02.763Z,18.80
2018-08-31T21:26:31.211Z,19.40
2018-08-31T21:28:59.611Z,19.73
2018-08-31T21:31:28.259Z,20.47
2018-08-31T21:33:56.643Z,18.97
2018-08-31T21:36:25.053Z,19.40
2018-08-31T21:38:53.641Z,19.67
2018-08-31T21:41:22.212Z,20.13
2018-08-31T21:43:50.555Z,22.27
2018-08-31T21:46:18.881Z,18.80
2018-08-31T21:48:47.247Z,20.27
2018-08-31T21:51:15.644Z,19.87
2018-08-31T21:53:44.008Z,19.73
2018-08-31T21:56:12.474Z,21.03
2018-08-31T21:58:40.903Z,19.27
2018-08-31T22:01:14.682Z,22.00
2018-08-31T22:03:43.007Z,19.67
2018-08-31T22:06:11.435Z,20.23
2018-08-31T22:08:39.871Z,19.93
2018-08-31T22:11:08.450Z,20.73
2018-08-31T22:13:36.871Z,20.87
2018-08-31T22:16:05.514Z,21.30
2018-08-31T22:18:33.945Z,22.20
2018-08-31T22:21:02.927Z,20.23
2018-08-31T22:23:31.498Z,22.00
2018-08-31T22:25:59.929Z,19.70
2018-08-31T22:28:28.275Z,22.57
2018-08-31T22:30:56.892Z,21.27
2018-08-31T22:33:25.215Z,22.73
2018-08-31T22:35:53.547Z,22.27
2018-08-31T22:38:22.179Z,22.97
2018-08-31T22:40:50.727Z,21.57
2018-08-31T22:43:19.191Z,22.17
2018-08-31T22:45:47.549Z,22.97
2018-08-31T22:48:15.879Z,22.57
2018-08-31T22:50:44.207Z,21.77
2018-08-31T22:53:12.607Z,20.27
2018-08-31T22:55:40.943Z,23.17
2018-08-31T22:58:09.328Z,22.00
2018-08-31T23:00:37.695Z,24.60
2018-08-31T23:03:06.186Z,22.13
2018-08-31T23:05:34.558Z,23.60
2018-08-31T23:08:03.650Z,25.13
2018-08-31T23:10:32.914Z,24.90
2018-08-31T23:13:01.811Z,22.87
2018-08-31T23:15:30.275Z,22.87
2018-08-31T23:17:58.772Z,22.43
2018-08-31T23:20:27.508Z,24.07
2018-08-31T23:23:01.145Z,24.23
2018-08-31T23:25:34.904Z,23.40
2018-08-31T23:28:03.334Z,24.07
2018-08-31T23:30:31.707Z,23.27
2018-08-31T23:33:00.299Z,21.60
2018-08-31T23:35:28.739Z,24.13
2018-08-31T23:37:57.211Z,24.17
2018-08-31T23:40:25.596Z,25.23
2018-08-31T23:42:54.104Z,24.20
2018-08-31T23:45:22.467Z,22.67
2018-08-31T23:47:50.832Z,25.37
2018-08-31T23:50:19.241Z,24.93
2018-08-31T23:52:47.674Z,21.67
2018-08-31T23:55:16.235Z,24.87
2018-08-31T23:57:44.673Z,24.47
